createdAt,value
2022-09-25T00:04:56.272Z,23.80
2022-09-25T00:10:05.898Z,23.60
2022-09-25T00:15:12.426Z,23.50
2022-09-25T00:20:25.925Z,23.60
2022-09-25T00:25:31.580Z,23.70
2022-09-25T00:30:42.058Z,23.70
2022-09-25T00:35:47.485Z,24.00
2022-09-25T00:40:53.080Z,23.80
2022-09-25T00:45:58.757Z,23.80
2022-09-25T00:51:04.998Z,23.80
2022-09-25T00:56:14.428Z,24.00
2022-09-25T01:01:20.189Z,24.80
2022-09-25T01:06:28.743Z,25.10
2022-09-25T01:11:34.569Z,25.30
2022-09-25T01:16:42.686Z,25.70
2022-09-25T01:21:54.435Z,25.50
2022-09-25T01:27:32.361Z,25.30
2022-09-25T01:33:02.849Z,25.40
2022-09-25T01:38:41.564Z,25.60
2022-09-25T01:44:04.814Z,25.70
2022-09-25T01:49:16.608Z,25.80
2022-09-25T01:54:54.089Z,25.80
2022-09-25T02:00:10.243Z,26.00
2022-09-25T02:05:24.330Z,26.20
2022-09-25T02:10:41.616Z,26.40
2022-09-25T02:15:58.402Z,26.30
2022-09-25T02:21:25.277Z,26.80
2022-09-25T02:26:33.594Z,27.70
2022-09-25T02:31:50.645Z,28.20
2022-09-25T02:36:57.004Z,28.50
2022-09-25T02:42:17.927Z,28.90
2022-09-25T02:48:03.676Z,29.30
2022-09-25T02:53:29.728Z,30.20
2022-09-25T02:59:00.251Z,29.20
2022-09-25T03:04:08.190Z,28.40
2022-09-25T03:09:15.734Z,27.70
2022-09-25T03:14:21.651Z,27.40
2022-09-25T03:19:31.365Z,27.10
2022-09-25T03:24:36.882Z,27.10
2022-09-25T03:29:45.844Z,27.00
2022-09-25T03:34:51.412Z,27.20
2022-09-25T03:39:57.309Z,27.70
2022-09-25T03:45:03.405Z,28.40
2022-09-25T03:50:10.254Z,29.00
2022-09-25T03:55:15.752Z,28.90
2022-09-25T04:00:21.317Z,28.30
2022-09-25T04:05:27.320Z,27.70
2022-09-25T04:10:33.030Z,27.30
2022-09-25T04:15:38.808Z,27.20
2022-09-25T04:20:44.572Z,26.80
2022-09-25T04:25:50.965Z,26.80
2022-09-25T04:30:56.844Z,26.80
2022-09-25T04:36:02.825Z,26.70
2022-09-25T04:41:09.605Z,26.60
2022-09-25T04:46:21.440Z,26.50
2022-09-25T04:51:28.051Z,26.40
2022-09-25T04:56:33.533Z,26.30
2022-09-25T05:01:40.749Z,26.70
2022-09-25T05:06:46.361Z,27.10
2022-09-25T05:11:52.259Z,27.20
2022-09-25T05:16:57.973Z,27.20
2022-09-25T05:22:03.781Z,27.20
2022-09-25T05:27:09.409Z,27.60
2022-09-25T05:32:17.563Z,28.20
2022-09-25T05:37:23.619Z,30.30
2022-09-25T05:42:32.758Z,30.70
2022-09-25T05:47:40.556Z,30.30
2022-09-25T05:52:46.890Z,30.40
2022-09-25T05:57:52.583Z,30.60
2022-09-25T06:02:57.695Z,31.20
2022-09-25T06:08:03.787Z,31.10
2022-09-25T06:13:10.647Z,31.10
2022-09-25T06:18:16.469Z,32.50
2022-09-25T06:23:21.924Z,32.90
2022-09-25T06:28:27.551Z,32.30
2022-09-25T06:33:43.879Z,31.60
2022-09-25T06:38:49.078Z,31.70
2022-09-25T06:43:54.887Z,30.90
2022-09-25T06:49:00.175Z,30.00
2022-09-25T06:54:05.872Z,29.90
2022-09-25T06:59:11.565Z,31.60
2022-09-25T07:04:16.637Z,33.50
2022-09-25T07:09:22.229Z,33.90
2022-09-25T07:14:28.036Z,32.90
2022-09-25T07:19:33.938Z,31.50
2022-09-25T07:24:39.790Z,30.30
2022-09-25T07:29:45.479Z,29.80
2022-09-25T07:34:52.762Z,29.60
2022-09-25T07:39:58.924Z,30.00
2022-09-25T07:45:04.525Z,30.00
2022-09-25T07:50:15.274Z,29.90
2022-09-25T07:55:21.205Z,29.60
2022-09-25T08:00:26.687Z,29.30
2022-09-25T08:05:32.266Z,29.20
2022-09-25T08:10:37.867Z,29.10
2022-09-25T08:15:44.500Z,29.00
2022-09-25T08:20:50.303Z,28.80
2022-09-25T08:25:56.166Z,29.10
2022-09-25T08:31:06.274Z,29.30
2022-09-25T08:36:12.510Z,29.60
2022-09-25T08:41:29.755Z,29.50
2022-09-25T08:47:02.009Z,29.80
2022-09-25T08:52:10.705Z,30.00
2022-09-25T08:57:41.204Z,30.40
2022-09-25T09:02:56.285Z,30.50
2022-09-25T09:08:26.956Z,30.70
2022-09-25T09:13:44.470Z,30.80
2022-09-25T09:18:50.377Z,30.60
2022-09-25T09:24:03.451Z,30.30
2022-09-25T09:29:31.346Z,30.10
2022-09-25T09:35:06.353Z,29.80
2022-09-25T09:40:30.818Z,29.70
2022-09-25T09:45:51.927Z,29.60
2022-09-25T09:51:09.886Z,29.20
2022-09-25T09:56:27.567Z,29.00
2022-09-25T10:01:41.681Z,28.70
2022-09-25T10:07:05.456Z,28.50
2022-09-25T10:12:20.743Z,28.40
2022-09-25T10:17:26.345Z,28.30
2022-09-25T10:22:35.210Z,28.20
2022-09-25T10:27:51.579Z,28.10
2022-09-25T10:32:57.975Z,27.90
2022-09-25T10:38:04.508Z,27.70
2022-09-25T10:43:25.839Z,27.60
2022-09-25T10:48:55.146Z,27.50
2022-09-25T10:54:18.320Z,27.30
2022-09-25T10:59:26.646Z,27.20
2022-09-25T11:04:36.734Z,27.00
2022-09-25T11:09:46.973Z,26.90
2022-09-25T11:15:10.654Z,26.90
2022-09-25T11:20:22.726Z,26.90
2022-09-25T11:25:54.788Z,26.80
2022-09-25T11:31:25.861Z,26.80
2022-09-25T11:36:58.487Z,26.80
2022-09-25T11:42:16.011Z,26.80
2022-09-25T11:47:42.058Z,26.90
2022-09-25T11:53:15.954Z,26.90
2022-09-25T11:58:34.910Z,26.80
2022-09-25T12:03:52.902Z,26.80
2022-09-25T12:09:20.702Z,26.70
2022-09-25T12:14:33.328Z,26.80
2022-09-25T12:19:44.309Z,26.70
2022-09-25T12:25:18.592Z,26.60
2022-09-25T12:30:28.957Z,26.70
2022-09-25T12:36:14.835Z,26.70
2022-09-25T12:41:31.687Z,26.70
2022-09-25T12:46:45.060Z,26.70
2022-09-25T12:51:56.679Z,26.70
2022-09-25T12:57:27.482Z,26.70
2022-09-25T13:02:40.598Z,26.60
2022-09-25T13:08:11.363Z,26.70
2022-09-25T13:13:27.870Z,26.70
2022-09-25T13:18:37.661Z,26.70
2022-09-25T13:23:45.714Z,26.70
2022-09-25T13:29:06.085Z,26.70
2022-09-25T13:34:20.814Z,26.60
2022-09-25T13:39:56.955Z,26.60
2022-09-25T13:45:08.369Z,26.50
2022-09-25T13:50:13.761Z,26.50
2022-09-25T13:55:40.209Z,26.60
2022-09-25T14:01:00.732Z,26.50
2022-09-25T14:06:12.074Z,26.50
2022-09-25T14:11:24.053Z,26.50
2022-09-25T14:16:38.145Z,26.40
2022-09-25T14:21:48.051Z,26.40
2022-09-25T14:26:54.888Z,26.40
2022-09-25T14:32:53.502Z,26.40
2022-09-25T14:38:09.175Z,26.40
2022-09-25T14:43:46.769Z,26.30
2022-09-25T14:49:18.784Z,26.30
2022-09-25T14:54:38.263Z,26.30
2022-09-25T14:59:51.834Z,26.30
2022-09-25T15:05:01.544Z,26.20
2022-09-25T15:10:42.701Z,26.10
2022-09-25T15:16:20.307Z,26.10
2022-09-25T15:21:38.710Z,26.00
2022-09-25T15:27:04.461Z,26.00
2022-09-25T15:32:17.925Z,26.10
2022-09-25T15:37:31.308Z,26.10
2022-09-25T15:42:37.199Z,26.10
2022-09-25T15:54:29.931Z,26.00
2022-09-25T16:00:05.681Z,26.00
2022-09-25T16:05:14.388Z,25.90
2022-09-25T16:10:20.178Z,25.90
2022-09-25T16:15:35.641Z,25.90
2022-09-25T16:20:43.279Z,25.90
2022-09-25T16:25:52.277Z,25.80
2022-09-25T16:31:12.422Z,25.80
2022-09-25T16:36:20.393Z,25.80
2022-09-25T16:41:28.679Z,25.80
2022-09-25T16:46:34.391Z,25.80
2022-09-25T16:51:46.987Z,25.80
2022-09-25T16:56:52.518Z,25.80
2022-09-25T17:02:06.101Z,25.80
2022-09-25T17:07:12.236Z,25.70
2022-09-25T17:12:23.345Z,25.60
2022-09-25T17:17:31.180Z,25.60
2022-09-25T17:22:36.925Z,25.50
2022-09-25T17:27:42.708Z,25.50
2022-09-25T17:32:48.343Z,25.50
2022-09-25T17:37:54.425Z,25.50
2022-09-25T17:43:00.293Z,25.50
2022-09-25T17:48:05.680Z,25.50
2022-09-25T17:53:22.280Z,25.60
2022-09-25T17:58:29.747Z,25.60
2022-09-25T18:03:35.238Z,25.50
2022-09-25T18:08:40.744Z,25.50
2022-09-25T18:13:46.859Z,25.50
2022-09-25T18:19:10.196Z,25.60
2022-09-25T18:24:15.936Z,25.50
2022-09-25T18:29:21.387Z,25.60
2022-09-25T18:34:28.771Z,25.70
2022-09-25T18:39:34.782Z,25.60
2022-09-25T18:44:42.992Z,25.60
2022-09-25T18:49:48.541Z,25.60
2022-09-25T18:54:54.043Z,25.50
2022-09-25T19:00:00.414Z,25.50
2022-09-25T19:05:06.308Z,25.60
2022-09-25T19:10:12.616Z,25.50
2022-09-25T19:15:18.143Z,25.50
2022-09-25T19:20:23.741Z,25.50
2022-09-25T19:25:29.533Z,25.60
2022-09-25T19:30:35.010Z,25.60
2022-09-25T19:35:40.606Z,25.60
2022-09-25T19:40:46.069Z,25.50
2022-09-25T19:45:55.551Z,25.50
2022-09-25T19:51:01.780Z,25.50
2022-09-25T19:56:07.758Z,25.50
2022-09-25T20:01:23.341Z,25.50
2022-09-25T20:06:29.675Z,25.50
2022-09-25T20:11:37.188Z,25.50
2022-09-25T20:16:42.688Z,25.50
2022-09-25T20:21:48.354Z,25.40
2022-09-25T20:26:54.090Z,25.40
2022-09-25T20:31:59.607Z,25.40
2022-09-25T20:37:05.501Z,25.40
2022-09-25T20:42:11.872Z,25.50
2022-09-25T20:47:17.669Z,25.40
2022-09-25T20:52:22.689Z,25.50
2022-09-25T20:57:28.686Z,25.50
2022-09-25T21:02:34.427Z,25.40
2022-09-25T21:07:39.546Z,25.40
2022-09-25T21:12:45.059Z,25.40
2022-09-25T21:17:51.036Z,25.30
2022-09-25T21:22:56.542Z,25.30
2022-09-25T21:28:02.096Z,25.30
2022-09-25T21:33:07.856Z,25.30
2022-09-25T21:38:13.639Z,25.20
2022-09-25T21:43:19.262Z,25.20
2022-09-25T21:48:24.392Z,25.20
2022-09-25T21:53:30.758Z,25.20
2022-09-25T21:58:36.864Z,25.30
2022-09-25T22:03:44.607Z,25.30
2022-09-25T22:08:53.741Z,25.30
2022-09-25T22:14:01.846Z,25.30
2022-09-25T22:19:28.809Z,25.20
2022-09-25T22:24:34.753Z,25.20
2022-09-25T22:29:40.645Z,25.20
2022-09-25T22:34:47.185Z,25.10
2022-09-25T22:39:52.998Z,25.20
2022-09-25T22:44:58.257Z,25.10
2022-09-25T22:50:04.316Z,25.20
2022-09-25T22:55:10.655Z,25.20
2022-09-25T23:00:17.907Z,25.10
2022-09-25T23:05:24.177Z,25.20
2022-09-25T23:10:48.744Z,25.20
2022-09-25T23:15:55.912Z,25.30
2022-09-25T23:21:02.062Z,25.40
2022-09-25T23:26:11.122Z,25.40
2022-09-25T23:31:19.267Z,25.50
2022-09-25T23:36:27.698Z,25.60
2022-09-25T23:41:37.361Z,25.70
2022-09-25T23:46:44.969Z,25.80
2022-09-25T23:51:51.548Z,25.80
2022-09-25T23:56:58.332Z,26.00
